createdAt,value
2022-11-03T00:01:04.268Z,5.43
2022-11-03T00:06:26.008Z,4.45
2022-11-03T00:11:50.701Z,4.57
2022-11-03T00:17:12.482Z,5.20
2022-11-03T00:22:34.257Z,5.07
2022-11-03T00:27:56.889Z,4.50
2022-11-03T00:33:18.637Z,4.83
2022-11-03T00:38:40.464Z,4.53
2022-11-03T00:44:02.469Z,5.22
2022-11-03T00:49:24.178Z,4.90
2022-11-03T00:54:47.259Z,5.03
2022-11-03T01:00:11.777Z,4.63
2022-11-03T01:05:52.173Z,4.97
2022-11-03T01:11:36.111Z,5.43
2022-11-03T01:16:58.191Z,5.55
2022-11-03T01:22:21.452Z,5.07
2022-11-03T01:27:43.264Z,5.03
2022-11-03T01:33:05.265Z,5.47
2022-11-03T01:38:27.449Z,6.13
2022-11-03T01:44:09.120Z,5.85
2022-11-03T01:49:43.255Z,5.43
2022-11-03T01:55:13.446Z,6.03
2022-11-03T02:00:36.085Z,5.65
2022-11-03T02:05:58.674Z,5.45
2022-11-03T02:11:39.028Z,6.25
2022-11-03T02:17:06.033Z,5.88
2022-11-03T02:22:52.941Z,5.78
2022-11-03T02:28:19.101Z,5.57
2022-11-03T02:33:59.548Z,5.22
2022-11-03T02:39:25.543Z,5.13
2022-11-03T02:44:48.738Z,5.25
2022-11-03T02:50:10.541Z,5.38
2022-11-03T02:55:50.189Z,5.43
2022-11-03T03:01:19.819Z,5.70
2022-11-03T03:06:47.644Z,5.57
2022-11-03T03:12:11.644Z,5.03
2022-11-03T03:17:41.753Z,5.25
2022-11-03T03:23:16.620Z,5.57
2022-11-03T03:28:47.602Z,6.22
2022-11-03T03:34:24.020Z,6.70
2022-11-03T03:39:55.829Z,6.05
2022-11-03T03:45:19.557Z,5.80
2022-11-03T03:50:44.690Z,5.45
2022-11-03T03:56:06.894Z,6.93
2022-11-03T04:01:28.748Z,6.22
2022-11-03T04:07:10.626Z,5.20
2022-11-03T04:12:50.921Z,4.95
2022-11-03T04:18:31.691Z,5.00
2022-11-03T04:23:53.376Z,5.63
2022-11-03T04:29:15.045Z,7.38
2022-11-03T04:34:36.717Z,7.03
2022-11-03T04:40:00.734Z,6.90
2022-11-03T04:45:32.513Z,6.50
2022-11-03T04:50:58.223Z,6.17
2022-11-03T04:56:25.100Z,6.10
2022-11-03T05:01:47.085Z,5.78
2022-11-03T05:07:26.865Z,4.80
2022-11-03T05:12:49.038Z,5.20
2022-11-03T05:18:16.795Z,4.93
2022-11-03T05:23:41.029Z,5.23
2022-11-03T05:29:21.206Z,4.95
2022-11-03T05:34:46.521Z,5.80
2022-11-03T05:40:27.070Z,4.87
2022-11-03T05:45:52.407Z,5.20
2022-11-03T05:51:46.521Z,4.97
2022-11-03T05:57:14.659Z,5.97
2022-11-03T06:02:39.367Z,5.50
2022-11-03T06:08:04.140Z,5.97
2022-11-03T06:13:35.060Z,5.85
2022-11-03T06:18:56.815Z,5.57
2022-11-03T06:24:21.686Z,6.20
2022-11-03T06:29:52.096Z,5.30
2022-11-03T06:35:14.659Z,5.70
2022-11-03T06:40:37.520Z,5.73
2022-11-03T06:46:02.056Z,5.23
2022-11-03T06:51:28.566Z,6.60
2022-11-03T06:56:50.353Z,7.90
2022-11-03T07:02:44.052Z,7.53
2022-11-03T07:08:26.587Z,6.77
2022-11-03T07:13:53.427Z,6.68
2022-11-03T07:19:22.674Z,7.40
2022-11-03T07:24:46.679Z,6.85
2022-11-03T07:30:14.159Z,6.80
2022-11-03T07:36:08.298Z,6.60
2022-11-03T07:41:31.199Z,6.70
2022-11-03T07:46:57.144Z,6.90
2022-11-03T07:52:22.327Z,6.63
2022-11-03T07:57:44.227Z,6.90
2022-11-03T08:03:06.261Z,6.47
2022-11-03T08:08:28.151Z,6.72
2022-11-03T08:13:50.948Z,6.38
2022-11-03T08:19:12.637Z,7.80
2022-11-03T08:24:34.527Z,7.97
2022-11-03T08:29:56.210Z,6.70
2022-11-03T08:35:17.887Z,6.90
2022-11-03T08:40:39.559Z,7.40
2022-11-03T08:46:08.317Z,6.93
2022-11-03T08:51:36.216Z,6.82
2022-11-03T08:56:59.550Z,6.67
2022-11-03T09:02:21.298Z,6.72
2022-11-03T09:13:24.795Z,6.35
2022-11-03T09:18:46.668Z,6.90
2022-11-03T09:24:08.430Z,6.75
2022-11-03T09:29:51.511Z,7.03
2022-11-03T09:35:14.446Z,7.75
2022-11-03T09:40:36.369Z,7.15
2022-11-03T09:45:59.474Z,6.30
2022-11-03T09:51:23.076Z,6.53
2022-11-03T09:56:47.033Z,6.18
2022-11-03T10:02:21.161Z,6.40
2022-11-03T10:07:44.371Z,5.32
2022-11-03T10:13:12.309Z,6.28
2022-11-03T10:18:35.430Z,5.60
2022-11-03T10:23:57.104Z,5.32
2022-11-03T10:29:25.177Z,5.00
2022-11-03T10:34:46.890Z,4.35
2022-11-03T10:40:48.343Z,5.80
2022-11-03T10:46:29.428Z,4.78
2022-11-03T10:52:07.617Z,5.22
2022-11-03T10:57:29.540Z,4.72
2022-11-03T11:03:00.111Z,4.63
2022-11-03T11:08:24.057Z,5.05
2022-11-03T11:13:45.780Z,5.38
2022-11-03T11:19:07.463Z,5.43
2022-11-03T11:24:44.355Z,5.57
2022-11-03T11:30:27.556Z,7.30
2022-11-03T11:35:49.148Z,6.70
2022-11-03T11:41:10.950Z,5.95
2022-11-03T11:46:39.898Z,5.32
2022-11-03T11:52:02.656Z,5.47
2022-11-03T11:57:25.036Z,6.38
2022-11-03T12:02:47.695Z,6.55
2022-11-03T12:08:20.966Z,6.63
2022-11-03T12:13:52.323Z,6.60
2022-11-03T12:19:33.263Z,5.65
2022-11-03T12:24:59.643Z,5.78
2022-11-03T12:30:21.689Z,5.47
2022-11-03T12:35:43.441Z,5.78
2022-11-03T12:41:24.719Z,6.72
2022-11-03T12:46:46.410Z,6.20
2022-11-03T12:52:08.736Z,5.50
2022-11-03T12:57:30.561Z,6.47
2022-11-03T13:02:52.455Z,5.45
2022-11-03T13:08:14.513Z,5.05
2022-11-03T13:13:36.258Z,5.05
2022-11-03T13:18:58.007Z,5.20
2022-11-03T13:24:20.217Z,5.80
2022-11-03T13:29:42.049Z,5.78
2022-11-03T13:35:04.982Z,5.53
2022-11-03T13:40:54.984Z,5.70
2022-11-03T13:46:12.755Z,5.38
2022-11-03T13:51:34.482Z,5.88
2022-11-03T14:08:19.817Z,6.15
2022-11-03T14:13:41.489Z,6.18
2022-11-03T14:19:03.225Z,5.68
2022-11-03T14:24:24.967Z,6.00
2022-11-03T14:29:49.856Z,5.53
2022-11-03T14:35:11.794Z,5.40
2022-11-03T14:40:52.249Z,5.80
2022-11-03T14:46:13.991Z,6.38
2022-11-03T14:51:35.832Z,7.25
2022-11-03T14:56:57.637Z,8.15
2022-11-03T15:02:19.447Z,5.78
2022-11-03T15:07:41.164Z,5.38
2022-11-03T15:13:03.092Z,5.20
2022-11-03T15:18:25.137Z,5.72
2022-11-03T15:29:28.590Z,5.93
2022-11-03T15:34:50.411Z,5.90
2022-11-03T15:40:14.559Z,6.05
2022-11-03T15:45:36.243Z,6.60
2022-11-03T15:50:57.918Z,6.82
2022-11-03T15:56:19.589Z,6.15
2022-11-03T16:01:41.499Z,6.10
2022-11-03T16:07:08.259Z,7.55
2022-11-03T16:12:30.499Z,7.95
2022-11-03T16:17:52.196Z,8.00
2022-11-03T16:23:13.900Z,6.82
2022-11-03T16:28:35.945Z,5.47
2022-11-03T16:33:59.028Z,5.30
2022-11-03T16:39:20.725Z,4.47
2022-11-03T16:44:42.398Z,4.63
2022-11-03T16:50:04.475Z,5.95
2022-11-03T16:55:26.229Z,4.20
2022-11-03T17:00:47.951Z,4.63
2022-11-03T17:06:09.652Z,4.80
2022-11-03T17:11:37.246Z,5.00
2022-11-03T17:16:58.955Z,5.15
2022-11-03T17:22:22.153Z,4.97
2022-11-03T17:27:47.457Z,5.43
2022-11-03T17:33:15.555Z,6.72
2022-11-03T17:38:38.468Z,6.10
2022-11-03T17:44:00.147Z,6.97
2022-11-03T17:49:21.906Z,6.53
2022-11-03T17:54:43.968Z,5.63
2022-11-03T18:00:07.349Z,6.35
2022-11-03T18:05:31.380Z,7.70
2022-11-03T18:10:54.312Z,6.80
2022-11-03T18:16:16.049Z,7.38
2022-11-03T18:21:37.990Z,6.25
2022-11-03T18:26:59.689Z,5.47
2022-11-03T18:32:21.424Z,5.82
2022-11-03T18:37:45.124Z,5.95
2022-11-03T18:43:21.621Z,6.13
2022-11-03T18:48:43.289Z,5.70
2022-11-03T18:54:05.129Z,5.82
2022-11-03T18:59:31.767Z,6.03
2022-11-03T19:04:54.280Z,7.50
2022-11-03T19:10:21.637Z,7.20
2022-11-03T19:15:43.416Z,8.10
2022-11-03T19:21:12.814Z,8.60
2022-11-03T19:26:43.653Z,7.57
2022-11-03T19:32:12.840Z,6.82
2022-11-03T19:37:36.071Z,6.90
2022-11-03T19:42:58.727Z,6.55
2022-11-03T19:48:25.056Z,7.05
2022-11-03T19:53:48.168Z,5.85
2022-11-03T19:59:12.378Z,15.32
2022-11-03T20:04:34.054Z,14.25
2022-11-03T20:09:55.757Z,11.60
2022-11-03T20:15:20.467Z,7.80
2022-11-03T20:20:44.147Z,6.35
2022-11-03T20:26:13.273Z,7.03
2022-11-03T20:31:35.008Z,7.15
2022-11-03T20:36:58.909Z,7.85
2022-11-03T20:42:24.235Z,7.97
2022-11-03T20:47:48.333Z,8.27
2022-11-03T20:53:18.611Z,7.90
2022-11-03T20:58:40.563Z,7.40
2022-11-03T21:04:03.113Z,6.90
2022-11-03T21:09:24.914Z,6.55
2022-11-03T21:15:05.043Z,7.13
2022-11-03T21:20:26.853Z,6.70
2022-11-03T21:25:49.214Z,5.28
2022-11-03T21:31:13.207Z,5.25
2022-11-03T21:36:36.086Z,5.25
2022-11-03T21:42:17.342Z,5.50
2022-11-03T21:47:39.150Z,5.47
2022-11-03T21:53:00.845Z,5.63
2022-11-03T21:58:22.641Z,5.35
2022-11-03T22:03:44.288Z,6.97
2022-11-03T22:09:05.990Z,7.57
2022-11-03T22:14:47.645Z,6.75
2022-11-03T22:20:28.016Z,5.95
2022-11-03T22:26:08.363Z,5.65
2022-11-03T22:31:43.053Z,5.88
2022-11-03T22:37:04.734Z,5.20
2022-11-03T22:42:45.255Z,5.82
2022-11-03T22:48:07.024Z,5.00
2022-11-03T22:53:49.022Z,4.20
2022-11-03T22:59:10.805Z,4.43
2022-11-03T23:04:32.478Z,4.43
2022-11-03T23:09:54.158Z,4.25
2022-11-03T23:15:34.003Z,3.60
2022-11-03T23:21:08.185Z,3.22
2022-11-03T23:26:29.866Z,2.28
2022-11-03T23:31:51.882Z,2.35
2022-11-03T23:37:14.223Z,1.90
2022-11-03T23:42:35.913Z,1.63
2022-11-03T23:48:16.070Z,1.77
2022-11-03T23:53:37.762Z,2.50
2022-11-03T23:58:59.870Z,2.40
